sensor_id;sensor_type;location;lat;lon;timestamp;P1;durP1;ratioP1;P2;durP2;ratioP2
76131;SDS011;64877;50.994;13.650;2022-11-20T00:02:18;20.10;;;9.50;;
76131;SDS011;64877;50.994;13.650;2022-11-20T00:04:44;19.00;;;8.73;;
76131;SDS011;64877;50.994;13.650;2022-11-20T00:07:09;34.10;;;19.15;;
76131;SDS011;64877;50.994;13.650;2022-11-20T00:09:35;31.60;;;20.27;;
76131;SDS011;64877;50.994;13.650;2022-11-20T00:12:00;29.60;;;16.70;;
76131;SDS011;64877;50.994;13.650;2022-11-20T00:14:25;19.65;;;10.57;;
76131;SDS011;64877;50.994;13.650;2022-11-20T00:16:51;18.00;;;8.85;;
76131;SDS011;64877;50.994;13.650;2022-11-20T00:19:16;15.88;;;8.73;;
76131;SDS011;64877;50.994;13.650;2022-11-20T00:21:41;19.10;;;8.23;;
76131;SDS011;64877;50.994;13.650;2022-11-20T00:24:09;15.02;;;7.10;;
76131;SDS011;64877;50.994;13.650;2022-11-20T00:29:01;17.17;;;7.13;;
76131;SDS011;64877;50.994;13.650;2022-11-20T00:31:27;14.65;;;7.85;;
76131;SDS011;64877;50.994;13.650;2022-11-20T00:33:53;17.52;;;8.23;;
76131;SDS011;64877;50.994;13.650;2022-11-20T00:36:20;15.98;;;8.35;;
76131;SDS011;64877;50.994;13.650;2022-11-20T00:38:46;16.15;;;7.80;;
76131;SDS011;64877;50.994;13.650;2022-11-20T00:41:13;16.55;;;8.07;;
76131;SDS011;64877;50.994;13.650;2022-11-20T00:43:40;16.15;;;8.50;;
76131;SDS011;64877;50.994;13.650;2022-11-20T00:46:10;15.82;;;8.15;;
76131;SDS011;64877;50.994;13.650;2022-11-20T00:48:38;28.67;;;18.08;;
76131;SDS011;64877;50.994;13.650;2022-11-20T00:51:03;35.78;;;20.90;;
76131;SDS011;64877;50.994;13.650;2022-11-20T00:53:29;26.02;;;14.07;;
76131;SDS011;64877;50.994;13.650;2022-11-20T00:55:55;23.27;;;12.70;;
76131;SDS011;64877;50.994;13.650;2022-11-20T00:58:23;14.85;;;8.30;;
76131;SDS011;64877;50.994;13.650;2022-11-20T01:00:49;16.00;;;7.55;;
76131;SDS011;64877;50.994;13.650;2022-11-20T01:03:18;20.50;;;11.13;;
76131;SDS011;64877;50.994;13.650;2022-11-20T01:08:09;14.13;;;7.50;;
76131;SDS011;64877;50.994;13.650;2022-11-20T01:10:34;13.23;;;6.97;;
76131;SDS011;64877;50.994;13.650;2022-11-20T01:12:59;15.80;;;7.68;;
76131;SDS011;64877;50.994;13.650;2022-11-20T01:15:48;15.48;;;7.28;;
76131;SDS011;64877;50.994;13.650;2022-11-20T01:18:13;14.13;;;6.60;;
76131;SDS011;64877;50.994;13.650;2022-11-20T01:20:38;15.05;;;7.50;;
76131;SDS011;64877;50.994;13.650;2022-11-20T01:23:04;17.27;;;8.68;;
76131;SDS011;64877;50.994;13.650;2022-11-20T01:25:29;14.95;;;7.38;;
76131;SDS011;64877;50.994;13.650;2022-11-20T01:27:55;16.13;;;7.45;;
76131;SDS011;64877;50.994;13.650;2022-11-20T01:30:20;13.23;;;7.45;;
76131;SDS011;64877;50.994;13.650;2022-11-20T01:32:45;18.45;;;7.50;;
76131;SDS011;64877;50.994;13.650;2022-11-20T01:35:11;14.93;;;6.93;;
76131;SDS011;64877;50.994;13.650;2022-11-20T01:37:36;14.43;;;6.65;;
76131;SDS011;64877;50.994;13.650;2022-11-20T01:40:02;12.65;;;5.75;;
76131;SDS011;64877;50.994;13.650;2022-11-20T01:42:27;12.52;;;6.30;;
76131;SDS011;64877;50.994;13.650;2022-11-20T01:48:15;15.27;;;6.93;;
76131;SDS011;64877;50.994;13.650;2022-11-20T01:50:41;14.77;;;7.55;;
76131;SDS011;64877;50.994;13.650;2022-11-20T01:53:08;12.90;;;6.80;;
76131;SDS011;64877;50.994;13.650;2022-11-20T01:55:42;20.38;;;7.68;;
76131;SDS011;64877;50.994;13.650;2022-11-20T01:58:12;11.63;;;7.50;;
76131;SDS011;64877;50.994;13.650;2022-11-20T02:00:38;14.05;;;6.75;;
76131;SDS011;64877;50.994;13.650;2022-11-20T02:03:11;14.25;;;6.82;;
76131;SDS011;64877;50.994;13.650;2022-11-20T02:08:08;20.15;;;9.18;;
76131;SDS011;64877;50.994;13.650;2022-11-20T02:10:34;14.40;;;6.43;;
76131;SDS011;64877;50.994;13.650;2022-11-20T02:13:00;12.45;;;5.95;;
76131;SDS011;64877;50.994;13.650;2022-11-20T02:15:44;14.45;;;7.15;;
76131;SDS011;64877;50.994;13.650;2022-11-20T02:18:11;13.35;;;6.60;;
76131;SDS011;64877;50.994;13.650;2022-11-20T02:20:42;11.70;;;5.82;;
76131;SDS011;64877;50.994;13.650;2022-11-20T02:28:10;10.18;;;5.00;;
76131;SDS011;64877;50.994;13.650;2022-11-20T02:30:36;11.73;;;5.50;;
76131;SDS011;64877;50.994;13.650;2022-11-20T02:33:01;12.27;;;5.53;;
76131;SDS011;64877;50.994;13.650;2022-11-20T02:37:56;13.67;;;6.23;;
76131;SDS011;64877;50.994;13.650;2022-11-20T02:40:24;12.20;;;5.70;;
76131;SDS011;64877;50.994;13.650;2022-11-20T02:42:53;12.15;;;5.38;;
76131;SDS011;64877;50.994;13.650;2022-11-20T02:45:19;10.20;;;5.30;;
76131;SDS011;64877;50.994;13.650;2022-11-20T02:47:44;13.32;;;5.35;;
76131;SDS011;64877;50.994;13.650;2022-11-20T02:50:10;9.45;;;4.50;;
76131;SDS011;64877;50.994;13.650;2022-11-20T02:52:35;12.30;;;5.38;;
76131;SDS011;64877;50.994;13.650;2022-11-20T02:55:01;11.23;;;4.95;;
76131;SDS011;64877;50.994;13.650;2022-11-20T02:57:27;11.55;;;5.07;;
76131;SDS011;64877;50.994;13.650;2022-11-20T02:59:52;10.55;;;5.53;;
76131;SDS011;64877;50.994;13.650;2022-11-20T03:02:18;11.38;;;5.43;;
76131;SDS011;64877;50.994;13.650;2022-11-20T03:04:44;11.73;;;5.80;;
76131;SDS011;64877;50.994;13.650;2022-11-20T03:07:09;11.88;;;5.03;;
76131;SDS011;64877;50.994;13.650;2022-11-20T03:09:35;14.13;;;5.82;;
76131;SDS011;64877;50.994;13.650;2022-11-20T03:12:01;11.63;;;5.47;;
76131;SDS011;64877;50.994;13.650;2022-11-20T03:14:26;10.32;;;5.15;;
76131;SDS011;64877;50.994;13.650;2022-11-20T03:16:51;11.27;;;4.95;;
76131;SDS011;64877;50.994;13.650;2022-11-20T03:19:17;11.20;;;5.63;;
76131;SDS011;64877;50.994;13.650;2022-11-20T03:21:42;13.32;;;6.28;;
76131;SDS011;64877;50.994;13.650;2022-11-20T03:24:08;11.95;;;5.90;;
76131;SDS011;64877;50.994;13.650;2022-11-20T03:26:33;12.10;;;5.50;;
76131;SDS011;64877;50.994;13.650;2022-11-20T03:29:00;14.95;;;7.63;;
76131;SDS011;64877;50.994;13.650;2022-11-20T03:31:30;13.82;;;5.95;;
76131;SDS011;64877;50.994;13.650;2022-11-20T03:33:58;11.30;;;5.15;;
76131;SDS011;64877;50.994;13.650;2022-11-20T03:36:24;11.55;;;5.13;;
76131;SDS011;64877;50.994;13.650;2022-11-20T03:38:52;12.10;;;5.35;;
76131;SDS011;64877;50.994;13.650;2022-11-20T03:41:19;11.63;;;5.07;;
76131;SDS011;64877;50.994;13.650;2022-11-20T03:46:15;13.45;;;5.65;;
76131;SDS011;64877;50.994;13.650;2022-11-20T03:48:41;10.25;;;4.68;;
76131;SDS011;64877;50.994;13.650;2022-11-20T03:51:07;11.35;;;4.97;;
76131;SDS011;64877;50.994;13.650;2022-11-20T03:53:34;10.40;;;4.97;;
76131;SDS011;64877;50.994;13.650;2022-11-20T03:55:59;17.05;;;4.85;;
76131;SDS011;64877;50.994;13.650;2022-11-20T03:58:25;12.48;;;5.63;;
76131;SDS011;64877;50.994;13.650;2022-11-20T04:00:50;10.40;;;4.90;;
76131;SDS011;64877;50.994;13.650;2022-11-20T04:03:15;9.32;;;4.45;;
76131;SDS011;64877;50.994;13.650;2022-11-20T04:05:41;11.70;;;4.97;;
76131;SDS011;64877;50.994;13.650;2022-11-20T04:08:06;11.02;;;5.50;;
76131;SDS011;64877;50.994;13.650;2022-11-20T04:10:32;11.30;;;5.20;;
76131;SDS011;64877;50.994;13.650;2022-11-20T04:12:57;9.02;;;4.22;;
76131;SDS011;64877;50.994;13.650;2022-11-20T04:15:22;12.00;;;4.68;;
76131;SDS011;64877;50.994;13.650;2022-11-20T04:17:48;11.35;;;4.95;;
76131;SDS011;64877;50.994;13.650;2022-11-20T04:20:13;13.65;;;4.65;;
76131;SDS011;64877;50.994;13.650;2022-11-20T04:22:39;12.63;;;5.50;;
76131;SDS011;64877;50.994;13.650;2022-11-20T04:25:05;10.73;;;4.22;;
76131;SDS011;64877;50.994;13.650;2022-11-20T04:27:30;9.98;;;4.80;;
76131;SDS011;64877;50.994;13.650;2022-11-20T04:29:56;10.48;;;4.88;;
76131;SDS011;64877;50.994;13.650;2022-11-20T04:32:21;12.52;;;4.82;;
76131;SDS011;64877;50.994;13.650;2022-11-20T04:34:46;11.23;;;4.72;;
76131;SDS011;64877;50.994;13.650;2022-11-20T04:37:12;10.27;;;4.57;;
76131;SDS011;64877;50.994;13.650;2022-11-20T04:39:37;10.85;;;5.20;;
76131;SDS011;64877;50.994;13.650;2022-11-20T04:42:03;13.38;;;5.10;;
76131;SDS011;64877;50.994;13.650;2022-11-20T04:44:47;11.65;;;4.95;;
76131;SDS011;64877;50.994;13.650;2022-11-20T04:47:12;9.65;;;4.25;;
76131;SDS011;64877;50.994;13.650;2022-11-20T04:49:37;11.45;;;4.25;;
76131;SDS011;64877;50.994;13.650;2022-11-20T04:52:03;9.20;;;4.35;;
76131;SDS011;64877;50.994;13.650;2022-11-20T04:54:28;9.57;;;4.05;;
76131;SDS011;64877;50.994;13.650;2022-11-20T04:56:53;8.98;;;4.07;;
76131;SDS011;64877;50.994;13.650;2022-11-20T04:59:19;8.98;;;4.25;;
76131;SDS011;64877;50.994;13.650;2022-11-20T05:01:44;8.10;;;4.00;;
76131;SDS011;64877;50.994;13.650;2022-11-20T05:04:10;9.43;;;4.55;;
76131;SDS011;64877;50.994;13.650;2022-11-20T05:06:35;11.68;;;5.28;;
76131;SDS011;64877;50.994;13.650;2022-11-20T05:09:01;10.10;;;4.45;;
76131;SDS011;64877;50.994;13.650;2022-11-20T05:11:27;9.80;;;4.55;;
76131;SDS011;64877;50.994;13.650;2022-11-20T05:13:54;10.18;;;4.65;;
76131;SDS011;64877;50.994;13.650;2022-11-20T05:16:20;8.50;;;4.22;;
76131;SDS011;64877;50.994;13.650;2022-11-20T05:18:47;9.02;;;4.82;;
76131;SDS011;64877;50.994;13.650;2022-11-20T05:21:13;10.38;;;4.68;;
76131;SDS011;64877;50.994;13.650;2022-11-20T05:23:39;9.75;;;4.10;;
76131;SDS011;64877;50.994;13.650;2022-11-20T05:26:06;7.65;;;3.50;;
76131;SDS011;64877;50.994;13.650;2022-11-20T05:28:33;11.40;;;4.88;;
76131;SDS011;64877;50.994;13.650;2022-11-20T05:31:09;9.25;;;4.13;;
76131;SDS011;64877;50.994;13.650;2022-11-20T05:33:37;9.23;;;4.38;;
76131;SDS011;64877;50.994;13.650;2022-11-20T05:36:05;10.20;;;4.18;;
76131;SDS011;64877;50.994;13.650;2022-11-20T05:38:31;10.27;;;4.43;;
76131;SDS011;64877;50.994;13.650;2022-11-20T05:41:03;9.35;;;4.15;;
76131;SDS011;64877;50.994;13.650;2022-11-20T05:43:33;7.85;;;3.70;;
76131;SDS011;64877;50.994;13.650;2022-11-20T05:45:59;10.27;;;4.15;;
76131;SDS011;64877;50.994;13.650;2022-11-20T05:48:25;10.02;;;4.25;;
76131;SDS011;64877;50.994;13.650;2022-11-20T05:50:50;9.05;;;3.92;;
76131;SDS011;64877;50.994;13.650;2022-11-20T05:53:16;9.82;;;3.85;;
76131;SDS011;64877;50.994;13.650;2022-11-20T05:55:41;10.02;;;4.40;;
76131;SDS011;64877;50.994;13.650;2022-11-20T05:58:06;11.40;;;4.80;;
76131;SDS011;64877;50.994;13.650;2022-11-20T06:00:32;10.80;;;4.07;;
76131;SDS011;64877;50.994;13.650;2022-11-20T06:02:57;9.13;;;4.07;;
76131;SDS011;64877;50.994;13.650;2022-11-20T06:05:22;8.88;;;4.13;;
76131;SDS011;64877;50.994;13.650;2022-11-20T06:07:48;10.95;;;4.13;;
76131;SDS011;64877;50.994;13.650;2022-11-20T06:10:13;10.30;;;4.68;;
76131;SDS011;64877;50.994;13.650;2022-11-20T06:12:39;10.52;;;4.70;;
76131;SDS011;64877;50.994;13.650;2022-11-20T06:15:04;9.13;;;4.45;;
76131;SDS011;64877;50.994;13.650;2022-11-20T06:17:30;9.55;;;4.32;;
76131;SDS011;64877;50.994;13.650;2022-11-20T06:19:56;8.93;;;3.83;;
76131;SDS011;64877;50.994;13.650;2022-11-20T06:22:21;10.40;;;4.68;;
76131;SDS011;64877;50.994;13.650;2022-11-20T06:24:47;8.77;;;3.95;;
76131;SDS011;64877;50.994;13.650;2022-11-20T06:27:12;12.13;;;4.88;;
76131;SDS011;64877;50.994;13.650;2022-11-20T06:29:37;11.80;;;5.05;;
76131;SDS011;64877;50.994;13.650;2022-11-20T06:32:03;10.75;;;4.03;;
76131;SDS011;64877;50.994;13.650;2022-11-20T06:34:28;8.80;;;3.72;;
76131;SDS011;64877;50.994;13.650;2022-11-20T06:36:54;8.18;;;4.20;;
76131;SDS011;64877;50.994;13.650;2022-11-20T06:39:19;10.85;;;4.43;;
76131;SDS011;64877;50.994;13.650;2022-11-20T06:41:45;9.43;;;4.10;;
76131;SDS011;64877;50.994;13.650;2022-11-20T06:44:10;8.95;;;4.20;;
76131;SDS011;64877;50.994;13.650;2022-11-20T06:46:36;9.02;;;4.28;;
76131;SDS011;64877;50.994;13.650;2022-11-20T06:49:01;10.82;;;4.05;;
76131;SDS011;64877;50.994;13.650;2022-11-20T06:51:27;9.48;;;4.00;;
76131;SDS011;64877;50.994;13.650;2022-11-20T06:53:53;9.95;;;3.97;;
76131;SDS011;64877;50.994;13.650;2022-11-20T06:56:18;8.65;;;4.10;;
76131;SDS011;64877;50.994;13.650;2022-11-20T06:58:44;11.45;;;5.07;;
76131;SDS011;64877;50.994;13.650;2022-11-20T07:01:10;10.13;;;4.78;;
76131;SDS011;64877;50.994;13.650;2022-11-20T07:03:37;8.27;;;4.97;;
76131;SDS011;64877;50.994;13.650;2022-11-20T07:06:04;11.40;;;5.07;;
76131;SDS011;64877;50.994;13.650;2022-11-20T07:08:30;14.48;;;5.93;;
76131;SDS011;64877;50.994;13.650;2022-11-20T07:11:03;10.98;;;5.15;;
76131;SDS011;64877;50.994;13.650;2022-11-20T07:13:31;12.27;;;5.75;;
76131;SDS011;64877;50.994;13.650;2022-11-20T07:16:01;12.98;;;5.70;;
76131;SDS011;64877;50.994;13.650;2022-11-20T07:18:28;13.23;;;7.25;;
76131;SDS011;64877;50.994;13.650;2022-11-20T07:20:53;13.93;;;6.13;;
76131;SDS011;64877;50.994;13.650;2022-11-20T07:23:19;10.48;;;5.45;;
76131;SDS011;64877;50.994;13.650;2022-11-20T07:25:44;13.70;;;4.97;;
76131;SDS011;64877;50.994;13.650;2022-11-20T07:28:09;9.23;;;4.97;;
76131;SDS011;64877;50.994;13.650;2022-11-20T07:30:35;11.82;;;5.43;;
76131;SDS011;64877;50.994;13.650;2022-11-20T07:33:01;14.73;;;5.88;;
76131;SDS011;64877;50.994;13.650;2022-11-20T07:35:26;12.98;;;6.18;;
76131;SDS011;64877;50.994;13.650;2022-11-20T07:37:51;14.20;;;6.72;;
76131;SDS011;64877;50.994;13.650;2022-11-20T07:40:17;13.43;;;6.13;;
76131;SDS011;64877;50.994;13.650;2022-11-20T07:42:49;12.35;;;7.13;;
76131;SDS011;64877;50.994;13.650;2022-11-20T07:45:17;17.65;;;7.18;;
76131;SDS011;64877;50.994;13.650;2022-11-20T07:47:43;10.73;;;5.57;;
76131;SDS011;64877;50.994;13.650;2022-11-20T07:50:08;16.83;;;7.53;;
76131;SDS011;64877;50.994;13.650;2022-11-20T07:52:34;15.40;;;6.47;;
76131;SDS011;64877;50.994;13.650;2022-11-20T07:54:59;12.20;;;6.68;;
76131;SDS011;64877;50.994;13.650;2022-11-20T07:57:25;12.18;;;6.13;;
76131;SDS011;64877;50.994;13.650;2022-11-20T07:59:50;10.65;;;6.38;;
76131;SDS011;64877;50.994;13.650;2022-11-20T08:02:15;12.07;;;5.32;;
76131;SDS011;64877;50.994;13.650;2022-11-20T08:04:41;12.68;;;5.95;;
76131;SDS011;64877;50.994;13.650;2022-11-20T08:07:06;20.67;;;7.07;;
76131;SDS011;64877;50.994;13.650;2022-11-20T08:09:31;12.90;;;6.32;;
76131;SDS011;64877;50.994;13.650;2022-11-20T08:11:57;11.93;;;5.70;;
76131;SDS011;64877;50.994;13.650;2022-11-20T08:14:41;13.13;;;6.53;;
76131;SDS011;64877;50.994;13.650;2022-11-20T08:17:07;13.05;;;6.97;;
76131;SDS011;64877;50.994;13.650;2022-11-20T08:19:32;12.15;;;6.05;;
76131;SDS011;64877;50.994;13.650;2022-11-20T08:21:57;11.05;;;6.40;;
76131;SDS011;64877;50.994;13.650;2022-11-20T08:24:23;11.82;;;6.47;;
76131;SDS011;64877;50.994;13.650;2022-11-20T08:26:49;16.73;;;7.90;;
76131;SDS011;64877;50.994;13.650;2022-11-20T08:29:15;13.45;;;6.57;;
76131;SDS011;64877;50.994;13.650;2022-11-20T08:31:40;16.15;;;7.45;;
76131;SDS011;64877;50.994;13.650;2022-11-20T08:34:06;14.93;;;7.25;;
76131;SDS011;64877;50.994;13.650;2022-11-20T08:36:32;17.48;;;7.60;;
76131;SDS011;64877;50.994;13.650;2022-11-20T08:38:59;16.77;;;8.52;;
76131;SDS011;64877;50.994;13.650;2022-11-20T08:41:25;16.83;;;9.32;;
76131;SDS011;64877;50.994;13.650;2022-11-20T08:44:01;17.27;;;8.90;;
76131;SDS011;64877;50.994;13.650;2022-11-20T08:46:32;16.92;;;9.18;;
76131;SDS011;64877;50.994;13.650;2022-11-20T08:48:59;16.35;;;8.50;;
76131;SDS011;64877;50.994;13.650;2022-11-20T08:51:24;17.58;;;8.98;;
76131;SDS011;64877;50.994;13.650;2022-11-20T08:53:50;19.85;;;9.18;;
76131;SDS011;64877;50.994;13.650;2022-11-20T08:56:15;19.02;;;9.25;;
76131;SDS011;64877;50.994;13.650;2022-11-20T08:58:42;24.23;;;10.57;;
76131;SDS011;64877;50.994;13.650;2022-11-20T09:01:08;18.50;;;9.18;;
76131;SDS011;64877;50.994;13.650;2022-11-20T09:03:33;16.80;;;9.30;;
76131;SDS011;64877;50.994;13.650;2022-11-20T09:05:59;16.02;;;8.88;;
76131;SDS011;64877;50.994;13.650;2022-11-20T09:08:26;18.13;;;9.75;;
76131;SDS011;64877;50.994;13.650;2022-11-20T09:10:53;16.42;;;8.50;;
76131;SDS011;64877;50.994;13.650;2022-11-20T09:13:20;16.38;;;8.43;;
76131;SDS011;64877;50.994;13.650;2022-11-20T09:15:46;14.27;;;8.27;;
76131;SDS011;64877;50.994;13.650;2022-11-20T09:18:12;18.60;;;8.82;;
76131;SDS011;64877;50.994;13.650;2022-11-20T09:20:38;15.00;;;8.10;;
76131;SDS011;64877;50.994;13.650;2022-11-20T09:23:03;20.88;;;9.48;;
76131;SDS011;64877;50.994;13.650;2022-11-20T09:25:29;17.48;;;8.30;;
76131;SDS011;64877;50.994;13.650;2022-11-20T09:27:57;16.65;;;8.43;;
76131;SDS011;64877;50.994;13.650;2022-11-20T09:30:24;16.98;;;7.88;;
76131;SDS011;64877;50.994;13.650;2022-11-20T09:32:49;16.27;;;9.32;;
76131;SDS011;64877;50.994;13.650;2022-11-20T09:35:15;18.75;;;9.25;;
76131;SDS011;64877;50.994;13.650;2022-11-20T09:37:40;19.63;;;10.45;;
76131;SDS011;64877;50.994;13.650;2022-11-20T09:40:06;16.50;;;8.63;;
76131;SDS011;64877;50.994;13.650;2022-11-20T09:42:45;15.77;;;7.95;;
76131;SDS011;64877;50.994;13.650;2022-11-20T09:58:45;12.20;;;6.80;;
76131;SDS011;64877;50.994;13.650;2022-11-20T10:01:16;13.80;;;8.27;;
76131;SDS011;64877;50.994;13.650;2022-11-20T10:06:44;12.07;;;6.57;;
76131;SDS011;64877;50.994;13.650;2022-11-20T10:09:22;11.80;;;7.18;;
76131;SDS011;64877;50.994;13.650;2022-11-20T10:11:51;13.70;;;8.07;;
76131;SDS011;64877;50.994;13.650;2022-11-20T10:14:25;14.75;;;8.80;;
76131;SDS011;64877;50.994;13.650;2022-11-20T10:20:12;14.60;;;8.63;;
76131;SDS011;64877;50.994;13.650;2022-11-20T10:31:23;13.40;;;6.38;;
76131;SDS011;64877;50.994;13.650;2022-11-20T10:33:50;10.25;;;5.65;;
76131;SDS011;64877;50.994;13.650;2022-11-20T10:36:25;8.30;;;5.10;;
76131;SDS011;64877;50.994;13.650;2022-11-20T10:41:27;9.13;;;4.50;;
76131;SDS011;64877;50.994;13.650;2022-11-20T10:46:38;11.55;;;4.72;;
76131;SDS011;64877;50.994;13.650;2022-11-20T10:49:12;8.77;;;4.05;;
76131;SDS011;64877;50.994;13.650;2022-11-20T10:57:05;9.10;;;4.70;;
76131;SDS011;64877;50.994;13.650;2022-11-20T11:02:22;8.95;;;3.83;;
76131;SDS011;64877;50.994;13.650;2022-11-20T11:04:52;7.22;;;3.67;;
76131;SDS011;64877;50.994;13.650;2022-11-20T11:07:30;7.90;;;4.28;;
76131;SDS011;64877;50.994;13.650;2022-11-20T11:10:01;7.72;;;3.67;;
76131;SDS011;64877;50.994;13.650;2022-11-20T11:12:34;7.70;;;3.92;;
76131;SDS011;64877;50.994;13.650;2022-11-20T11:15:00;7.50;;;4.05;;
76131;SDS011;64877;50.994;13.650;2022-11-20T11:22:42;8.52;;;4.60;;
76131;SDS011;64877;50.994;13.650;2022-11-20T11:25:21;10.05;;;4.47;;
76131;SDS011;64877;50.994;13.650;2022-11-20T11:28:20;9.13;;;4.45;;
76131;SDS011;64877;50.994;13.650;2022-11-20T11:30:47;9.40;;;4.55;;
76131;SDS011;64877;50.994;13.650;2022-11-20T11:33:23;11.63;;;4.85;;
76131;SDS011;64877;50.994;13.650;2022-11-20T11:35:55;9.60;;;4.43;;
76131;SDS011;64877;50.994;13.650;2022-11-20T11:38:28;10.52;;;5.65;;
76131;SDS011;64877;50.994;13.650;2022-11-20T11:40:54;10.10;;;5.00;;
76131;SDS011;64877;50.994;13.650;2022-11-20T11:43:23;8.15;;;4.35;;
76131;SDS011;64877;50.994;13.650;2022-11-20T11:46:21;9.57;;;5.10;;
76131;SDS011;64877;50.994;13.650;2022-11-20T11:48:57;8.57;;;4.65;;
76131;SDS011;64877;50.994;13.650;2022-11-20T11:51:45;11.98;;;5.72;;
76131;SDS011;64877;50.994;13.650;2022-11-20T11:57:28;15.50;;;6.97;;
76131;SDS011;64877;50.994;13.650;2022-11-20T12:00:08;17.13;;;7.07;;
76131;SDS011;64877;50.994;13.650;2022-11-20T12:05:21;10.52;;;5.13;;
76131;SDS011;64877;50.994;13.650;2022-11-20T12:07:52;9.60;;;5.22;;
76131;SDS011;64877;50.994;13.650;2022-11-20T12:12:53;10.88;;;5.22;;
76131;SDS011;64877;50.994;13.650;2022-11-20T12:15:28;12.43;;;6.05;;
76131;SDS011;64877;50.994;13.650;2022-11-20T12:17:55;15.07;;;6.95;;
76131;SDS011;64877;50.994;13.650;2022-11-20T12:20:22;11.60;;;6.25;;
76131;SDS011;64877;50.994;13.650;2022-11-20T12:22:56;13.50;;;6.88;;
76131;SDS011;64877;50.994;13.650;2022-11-20T12:25:44;12.57;;;6.57;;
76131;SDS011;64877;50.994;13.650;2022-11-20T12:31:24;12.02;;;5.80;;
76131;SDS011;64877;50.994;13.650;2022-11-20T12:34:12;14.63;;;6.82;;
76131;SDS011;64877;50.994;13.650;2022-11-20T12:39:29;13.40;;;6.70;;
76131;SDS011;64877;50.994;13.650;2022-11-20T12:53:26;15.10;;;6.93;;
76131;SDS011;64877;50.994;13.650;2022-11-20T13:07:12;13.65;;;5.97;;
76131;SDS011;64877;50.994;13.650;2022-11-20T13:09:46;14.80;;;7.75;;
76131;SDS011;64877;50.994;13.650;2022-11-20T13:12:17;15.38;;;8.05;;
76131;SDS011;64877;50.994;13.650;2022-11-20T13:17:45;10.57;;;4.97;;
76131;SDS011;64877;50.994;13.650;2022-11-20T13:20:19;11.02;;;5.35;;
76131;SDS011;64877;50.994;13.650;2022-11-20T13:22:49;11.10;;;5.30;;
76131;SDS011;64877;50.994;13.650;2022-11-20T13:27:48;10.48;;;5.35;;
76131;SDS011;64877;50.994;13.650;2022-11-20T13:30:16;10.90;;;5.30;;
76131;SDS011;64877;50.994;13.650;2022-11-20T13:35:28;8.35;;;4.00;;
76131;SDS011;64877;50.994;13.650;2022-11-20T13:38:13;9.13;;;4.45;;
76131;SDS011;64877;50.994;13.650;2022-11-20T13:40:58;7.75;;;4.68;;
76131;SDS011;64877;50.994;13.650;2022-11-20T13:43:46;8.25;;;4.38;;
76131;SDS011;64877;50.994;13.650;2022-11-20T13:46:12;7.90;;;4.30;;
76131;SDS011;64877;50.994;13.650;2022-11-20T13:48:39;11.05;;;5.53;;
76131;SDS011;64877;50.994;13.650;2022-11-20T13:54:04;9.48;;;4.85;;
76131;SDS011;64877;50.994;13.650;2022-11-20T14:02:15;7.68;;;4.38;;
76131;SDS011;64877;50.994;13.650;2022-11-20T14:04:46;9.63;;;4.88;;
76131;SDS011;64877;50.994;13.650;2022-11-20T14:07:15;10.20;;;5.25;;
76131;SDS011;64877;50.994;13.650;2022-11-20T14:09:50;9.77;;;4.93;;
76131;SDS011;64877;50.994;13.650;2022-11-20T14:12:18;9.30;;;4.70;;
76131;SDS011;64877;50.994;13.650;2022-11-20T14:14:50;9.27;;;4.80;;
76131;SDS011;64877;50.994;13.650;2022-11-20T14:17:24;11.63;;;5.55;;
76131;SDS011;64877;50.994;13.650;2022-11-20T14:19:58;10.98;;;5.35;;
76131;SDS011;64877;50.994;13.650;2022-11-20T14:22:30;10.73;;;5.72;;
76131;SDS011;64877;50.994;13.650;2022-11-20T14:27:40;9.13;;;4.43;;
76131;SDS011;64877;50.994;13.650;2022-11-20T14:30:16;9.32;;;5.30;;
76131;SDS011;64877;50.994;13.650;2022-11-20T14:32:44;9.75;;;4.78;;
76131;SDS011;64877;50.994;13.650;2022-11-20T14:37:53;11.40;;;5.65;;
76131;SDS011;64877;50.994;13.650;2022-11-20T14:42:50;10.38;;;5.88;;
76131;SDS011;64877;50.994;13.650;2022-11-20T14:45:18;12.07;;;6.05;;
76131;SDS011;64877;50.994;13.650;2022-11-20T14:47:46;9.85;;;6.00;;
76131;SDS011;64877;50.994;13.650;2022-11-20T14:50:14;9.05;;;4.85;;
76131;SDS011;64877;50.994;13.650;2022-11-20T14:52:50;10.90;;;6.30;;
76131;SDS011;64877;50.994;13.650;2022-11-20T14:57:54;12.60;;;6.40;;
76131;SDS011;64877;50.994;13.650;2022-11-20T15:00:25;11.27;;;6.28;;
76131;SDS011;64877;50.994;13.650;2022-11-20T15:02:52;11.05;;;6.15;;
76131;SDS011;64877;50.994;13.650;2022-11-20T15:05:19;11.73;;;5.80;;
76131;SDS011;64877;50.994;13.650;2022-11-20T15:07:47;10.02;;;5.45;;
76131;SDS011;64877;50.994;13.650;2022-11-20T15:10:22;12.48;;;6.20;;
76131;SDS011;64877;50.994;13.650;2022-11-20T15:15:21;11.07;;;5.72;;
76131;SDS011;64877;50.994;13.650;2022-11-20T15:20:16;12.15;;;7.13;;
76131;SDS011;64877;50.994;13.650;2022-11-20T15:22:43;12.77;;;6.93;;
76131;SDS011;64877;50.994;13.650;2022-11-20T15:25:15;13.35;;;6.60;;
76131;SDS011;64877;50.994;13.650;2022-11-20T15:27:42;13.00;;;6.13;;
76131;SDS011;64877;50.994;13.650;2022-11-20T15:30:13;10.65;;;5.35;;
76131;SDS011;64877;50.994;13.650;2022-11-20T15:32:40;12.35;;;7.30;;
76131;SDS011;64877;50.994;13.650;2022-11-20T15:35:05;12.93;;;7.10;;
76131;SDS011;64877;50.994;13.650;2022-11-20T15:37:31;11.40;;;5.93;;
76131;SDS011;64877;50.994;13.650;2022-11-20T15:39:57;13.52;;;7.13;;
76131;SDS011;64877;50.994;13.650;2022-11-20T15:42:22;14.15;;;7.30;;
76131;SDS011;64877;50.994;13.650;2022-11-20T15:44:47;13.07;;;6.93;;
76131;SDS011;64877;50.994;13.650;2022-11-20T15:47:13;13.30;;;6.18;;
76131;SDS011;64877;50.994;13.650;2022-11-20T15:49:38;16.95;;;6.50;;
76131;SDS011;64877;50.994;13.650;2022-11-20T15:52:03;12.88;;;6.78;;
76131;SDS011;64877;50.994;13.650;2022-11-20T15:54:29;17.90;;;8.52;;
76131;SDS011;64877;50.994;13.650;2022-11-20T15:56:54;18.35;;;8.48;;
76131;SDS011;64877;50.994;13.650;2022-11-20T15:59:20;13.82;;;7.18;;
76131;SDS011;64877;50.994;13.650;2022-11-20T16:01:45;17.05;;;7.00;;
76131;SDS011;64877;50.994;13.650;2022-11-20T16:04:11;14.93;;;6.80;;
76131;SDS011;64877;50.994;13.650;2022-11-20T16:06:38;11.73;;;6.03;;
76131;SDS011;64877;50.994;13.650;2022-11-20T16:09:04;13.35;;;7.80;;
76131;SDS011;64877;50.994;13.650;2022-11-20T16:11:29;22.48;;;11.30;;
76131;SDS011;64877;50.994;13.650;2022-11-20T16:13:54;13.25;;;8.35;;
76131;SDS011;64877;50.994;13.650;2022-11-20T16:16:38;18.55;;;10.18;;
76131;SDS011;64877;50.994;13.650;2022-11-20T16:19:05;19.17;;;11.45;;
76131;SDS011;64877;50.994;13.650;2022-11-20T16:21:31;14.10;;;7.97;;
76131;SDS011;64877;50.994;13.650;2022-11-20T16:24:00;14.43;;;7.95;;
76131;SDS011;64877;50.994;13.650;2022-11-20T16:26:27;15.10;;;8.05;;
76131;SDS011;64877;50.994;13.650;2022-11-20T16:28:54;12.20;;;6.38;;
76131;SDS011;64877;50.994;13.650;2022-11-20T16:31:20;13.15;;;7.80;;
76131;SDS011;64877;50.994;13.650;2022-11-20T16:33:50;13.50;;;7.25;;
76131;SDS011;64877;50.994;13.650;2022-11-20T16:36:17;15.80;;;7.90;;
76131;SDS011;64877;50.994;13.650;2022-11-20T16:38:43;14.75;;;7.03;;
76131;SDS011;64877;50.994;13.650;2022-11-20T16:41:09;10.77;;;6.28;;
76131;SDS011;64877;50.994;13.650;2022-11-20T16:43:44;11.35;;;6.35;;
76131;SDS011;64877;50.994;13.650;2022-11-20T16:46:11;13.15;;;6.72;;